Airfield :
LOGIN :

Register | Disclaimer

   EN    FR    IT 

 










Legend :    VFR   Marginal VFR   IFR   Intensive IFR   Very Intensive IFR
Visi :
Ceiling :
>= 8 km
>= 3000ft
5 to 8 km
1000 to 3000 ft
1500m to 5 km
500 to 1000 ft
800 to 1500m
200 to 500 ft
< 800m
< 200 ft
Symbols :   Thunderstorms  Fog  Heavy snow  Heavy precipitations  Wind > 20 kt
SIGMETs :     Misc.  Thunderstorms  Icing  Turbulence  Mountain Waves  Volcanic Ashes







- Airport Elevation : 162 ft
- IATA code : BOD
- Download approach charts


LFBD - Bordeaux / Merignac

CURRENT METAR :
  • 172200Z AUTO 22003KT CAVOK 03/02 Q1020 TEMPO 4000 -SHRA BKN020TCU

EXPIRED METARs :
  • 172130Z AUTO 21003KT CAVOK 03/02 Q1020 TEMPO 4000 -SHRA BKN020TCU
  • 172100Z AUTO 23003KT CAVOK 04/03 Q1020 TEMPO 4000 -SHRA BKN020TCU
  • 172030Z AUTO 25003KT CAVOK 04/03 Q1020 TEMPO 4000 -SHRA BKN020TCU
  • 172000Z AUTO 28004KT CAVOK 05/03 Q1020 TEMPO 4000 -SHRA BKN020TCU
  • 171930Z AUTO 25004KT CAVOK 05/03 Q1020 TEMPO 4000 -SHRA BKN020TCU

TAF TAF LFBD
Valid from the 17 at 18:00 until the 19 at 00:00 UTC


171700Z 1718/1824 31005KT 9999 SCT026 SCT050 TX10/1815Z TN03/1803Z
TEMPO 1718/1806 4000 -SHRA BKN020TCU
TEMPO 1800/1806 1200 BR BKN025
PROB30 1805/1808 0500 BCFG VV///
BECMG 1811/1813 SCT008 BKN016
BECMG 1817/1819 BKN005 BKN012
TEMPO 1819/1824 4000 RA
ATIS : +33 5 57 92 81 04
No reported NOTAMs for that airfield.



MET'MAP, your aeronautical weather chart ! - Copyright ORBIFLY December 2007 - Disclaimer

ORBIFLY MET'MAP TEAM :

Programming & Development : Alexandra Zaïnal
Concept & Development : Baudouin d'Aumeries
Co-Development & Prog : Marc-Olivier Méhu
Technical & hardware support : Manuel Goepfert

Contact : metmap@orbifly.com




SOURCES & CREDITS :

   NOAA